DW2380 Paimio FI current weather conditions

sailwx.info

Wind from 360 at 1 knots gusting 6

Air temperature -0.6° C
Dewpoint -2.8° C

Last reported at 2020-Jan-22 22:00 UTC.
Time now 2020-Jan-22 22:35 UTC

Location: N 60°28' E 022°40'.
View on Google Maps.

See reports from other nearby stations

  
Tides and Currents Weather Stations Pressure Air Temp Water Temp Dewpoint Dewpoint Depression Visibility Wind Speed Wind Dir Waves Ship Positions
date/time (UTC)wind fromknots sea level pressurealtimeterstation pressurevisibilityair tempwater tempwave heightnotes
2020-Jan-22 22:00 360 1 gusting 6 -0.6
2020-Jan-22 21:00 360 2 gusting 6 0.6
2020-Jan-22 19:55 360 7 gusting 14 1.1
2020-Jan-22 18:55 360 7 gusting 13 0.6
2020-Jan-22 18:05 360 4 gusting 11 -0.0
2020-Jan-22 17:15 360 1 gusting 4 -0.6
2020-Jan-22 16:20 360 7 gusting 13 -0.0
2020-Jan-22 15:30 360 2 gusting 10 -0.0
2020-Jan-22 14:40 360 3 gusting 7 0.6
2020-Jan-22 14:00 360 4 gusting 16 1.1
2020-Jan-22 13:15 360 6 gusting 14 1.7
2020-Jan-22 12:25 360 6 gusting 16 2.2
2020-Jan-22 11:40 360 7 gusting 13 2.2
2020-Jan-22 10:40 360 7 gusting 13 1.7
2020-Jan-22 10:05 360 5 gusting 13 1.1
2020-Jan-22 09:20 360 5 gusting 14 1.1
2020-Jan-22 08:35 360 3 gusting 10 1.1
2020-Jan-22 07:45 360 6 gusting 17 1.7
2020-Jan-22 06:45 360 6 gusting 16 1.7
2020-Jan-22 06:00 360 6 gusting 12 1.7
2020-Jan-22 05:15 360 7 gusting 17 2.2
2020-Jan-22 04:20 360 6 gusting 12 2.2
2020-Jan-22 03:35 360 13 gusting 26 2.8
2020-Jan-22 02:45 360 12 gusting 19 2.8
2020-Jan-22 01:35 360 10 gusting 26 3.3
2020-Jan-22 00:50 360 11 gusting 20 3.3
2020-Jan-22 00:00 360 7 gusting 26 3.9
2020-Jan-21 23:15 360 9 gusting 24 3.9
2020-Jan-21 22:15 360 9 gusting 20 3.9
2020-Jan-21 21:25 360 11 gusting 19 3.9
2020-Jan-21 20:30 360 11 gusting 20 3.9
2020-Jan-21 19:35 360 12 gusting 23 3.9
2020-Jan-21 18:30 360 10 gusting 20 3.9
2020-Jan-21 17:45 360 8 gusting 19 3.9
2020-Jan-21 16:45 360 6 gusting 17 3.3
2020-Jan-21 15:40 360 7 gusting 13 2.8
2020-Jan-21 14:30 360 9 gusting 15 3.3
2020-Jan-21 13:35 360 6 gusting 14 4.4
2020-Jan-21 12:40 360 8 gusting 18 5.0
2020-Jan-21 11:40 360 9 gusting 18 5.6
2020-Jan-21 10:45 360 12 gusting 19 5.6
2020-Jan-21 09:50 360 6 gusting 13 5.6
2020-Jan-21 08:50 360 10 gusting 19 6.1
2020-Jan-21 07:50 360 12 gusting 21 6.7
2020-Jan-21 06:50 360 5 gusting 14 7.2
2020-Jan-21 05:45 360 8 gusting 19 7.8
2020-Jan-21 05:15 360 10 gusting 19 7.8
2020-Jan-21 04:40 360 6 gusting 15 7.8
2020-Jan-21 03:45 360 6 gusting 13 7.8
2020-Jan-21 02:45 360 8 gusting 18 7.2
2020-Jan-21 01:40 360 1 gusting 5 3.9
2020-Jan-21 00:40 360 3 gusting 6 4.4
2020-Jan-20 23:40 360 6 gusting 10 4.4
2020-Jan-20 23:00 360 4 gusting 6 4.4
2020-Jan-20 22:05 360 6 gusting 11 3.9